createdAt,value
2019-05-21T20:43:58.584Z,1.60
2019-05-21T20:46:35.334Z,1.87
2019-05-21T20:49:18.777Z,1.60
2019-05-21T20:52:16.086Z,1.92
2019-05-21T20:54:47.440Z,1.60
2019-05-21T20:57:30.315Z,1.50
2019-05-21T21:00:15.891Z,1.47
2019-05-21T21:02:59.906Z,1.60
2019-05-21T21:05:43.137Z,1.50
2019-05-21T21:08:27.957Z,1.40
2019-05-21T21:11:12.643Z,1.42
2019-05-21T21:13:55.989Z,1.22
2019-05-21T21:16:39.139Z,1.07
2019-05-21T21:19:21.884Z,1.50
2019-05-21T21:22:04.925Z,1.27
2019-05-21T21:24:47.606Z,1.30
2019-05-21T21:27:31.693Z,1.20
2019-05-21T21:30:15.244Z,1.40
2019-05-21T21:32:59.914Z,1.30
2019-05-21T21:35:43.244Z,1.50
2019-05-21T21:38:29.441Z,1.50
2019-05-21T21:41:12.638Z,1.65
2019-05-21T21:43:55.821Z,1.20
2019-05-21T21:46:39.490Z,1.10
2019-05-21T21:49:29.514Z,1.47
2019-05-21T21:52:12.823Z,1.30
2019-05-21T21:54:55.694Z,1.67
2019-05-21T21:57:38.430Z,1.42
2019-05-21T22:01:39.622Z,1.65
2019-05-21T22:04:25.302Z,1.60
2019-05-21T22:07:09.373Z,1.50
2019-05-21T22:09:52.384Z,1.37
2019-05-21T22:12:35.642Z,2.00
2019-05-21T22:15:20.383Z,1.80
2019-05-21T22:18:03.545Z,1.52
2019-05-21T22:20:46.399Z,1.70
2019-05-21T22:23:29.700Z,1.70
2019-05-21T22:26:12.575Z,1.40
2019-05-21T22:28:55.474Z,1.32
2019-05-21T22:31:38.475Z,1.42
2019-05-21T22:34:22.525Z,1.57
2019-05-21T22:37:06.457Z,1.50
2019-05-21T22:39:49.586Z,1.75
2019-05-21T22:42:32.916Z,1.47
2019-05-21T22:45:17.149Z,2.17
2019-05-21T22:47:59.889Z,2.30
2019-05-21T22:50:43.310Z,2.10
2019-05-21T22:53:26.212Z,2.08
2019-05-21T22:56:09.277Z,2.80
2019-05-21T22:58:52.136Z,2.85
2019-05-21T23:01:37.021Z,4.03
2019-05-21T23:04:20.293Z,3.45
2019-05-21T23:07:04.674Z,3.10
2019-05-21T23:09:47.987Z,3.75
2019-05-21T23:12:32.530Z,4.25
2019-05-21T23:15:24.569Z,3.98
2019-05-21T23:18:01.815Z,5.00
2019-05-21T23:20:56.922Z,4.20
2019-05-21T23:23:42.701Z,4.55
2019-05-21T23:26:26.050Z,4.35
2019-05-21T23:29:09.596Z,4.65
2019-05-21T23:31:52.625Z,4.30
2019-05-21T23:34:35.570Z,4.50
2019-05-21T23:37:28.533Z,4.83
2019-05-21T23:40:13.143Z,4.58
2019-05-21T23:42:56.196Z,4.50
2019-05-21T23:45:38.971Z,4.30
2019-05-21T23:48:22.484Z,4.00
2019-05-21T23:51:06.449Z,4.20
2019-05-21T23:53:49.202Z,4.80
2019-05-21T23:56:32.204Z,4.30
2019-05-21T23:59:16.251Z,4.50
